Time,TemperatureF,DewpointF,PressureIn,WindDirection,WindDirectionDegrees,WindSpeedMPH,WindSpeedGustMPH,Humidity,HourlyPrecipIn,Conditions,Clouds,dailyrainin,SoftwareType,DateUTC
2013-03-17 00:00:00,57.2,53.9,29.88,WSW,250,13.9,19.1,89,0.00, ,,-99.99,VWS V12.07,2013-03-17 04:00:00,
2013-03-17 00:02:00,57.6,54.3,29.88,SW,223,14.4,19.1,89,0.00, ,,-99.99,VWS V12.07,2013-03-17 04:02:00,
2013-03-17 00:03:00,57.4,54.1,29.88,WSW,251,11.7,21.1,89,0.00, ,,-99.99,VWS V12.07,2013-03-17 04:03:00,
2013-03-17 00:08:00,57.1,53.8,29.87,WSW,237,12.0,21.1,89,0.00, ,,-99.99,VWS V12.07,2013-03-17 04:08:00,
2013-03-17 00:13:00,57.2,53.9,29.87,WSW,254,11.4,21.1,89,0.00, ,,-99.99,VWS V12.07,2013-03-17 04:13:00,
2013-03-17 00:18:00,57.0,53.6,29.88,WSW,243,10.2,18.3,88,0.00, ,,-99.99,VWS V12.07,2013-03-17 04:18:00,
2013-03-17 00:23:00,57.7,54.3,29.87,West,260,12.1,19.9,88,0.00, ,,-99.99,VWS V12.07,2013-03-17 04:23:00,
2013-03-17 00:28:00,57.4,54.1,29.87,WSW,246,11.4,19.9,89,0.00, ,,-99.99,VWS V12.07,2013-03-17 04:28:00,
2013-03-17 00:33:00,57.4,54.1,29.87,WSW,253,10.3,19.9,89,0.00, ,,-99.99,VWS V12.07,2013-03-17 04:33:00,
2013-03-17 00:38:00,57.3,54.0,29.87,WSW,243,13.9,16.0,89,0.00, ,,-99.99,VWS V12.07,2013-03-17 04:38:00,
2013-03-17 00:43:00,57.2,54.1,29.87,WSW,240,11.4,18.8,89,0.00, ,,-99.99,VWS V12.07,2013-03-17 04:43:00,
2013-03-17 00:48:00,57.2,54.2,29.87,WSW,244,18.2,19.8,90,0.00, ,,-99.99,VWS V12.07,2013-03-17 04:48:00,
2013-03-17 00:53:00,56.9,53.9,29.87,WSW,244,14.8,19.8,90,0.00, ,,-99.99,VWS V12.07,2013-03-17 04:53:00,
2013-03-17 00:58:00,57.2,54.3,29.87,WSW,246,16.6,17.1,90,0.00, ,,-99.99,VWS V12.07,2013-03-17 04:58:00,
2013-03-17 01:03:00,56.9,54.1,29.87,SW,236,10.6,18.4,90,0.00, ,,-99.99,VWS V12.07,2013-03-17 05:03:00,
2013-03-17 01:08:00,56.8,54.2,29.87,WSW,237,14.2,18.4,91,0.00, ,,-99.99,VWS V12.07,2013-03-17 05:08:00,
2013-03-17 01:13:00,56.5,54.0,29.87,WSW,250,14.4,18.4,91,0.00, ,,-99.99,VWS V12.07,2013-03-17 05:13:00,
2013-03-17 01:18:00,56.8,54.4,29.87,SW,228,13.9,18.2,92,0.00, ,,-99.99,VWS V12.07,2013-03-17 05:18:00,
2013-03-17 01:21:00,56.6,54.2,29.87,SW,222,10.6,18.2,92,0.00, ,,-99.99,VWS V12.07,2013-03-17 05:21:00,
2013-03-17 01:27:00,56.8,54.5,29.87,SW,232,10.7,19.4,92,0.00, ,,-99.99,VWS V12.07,2013-03-17 05:27:00,
2013-03-17 01:32:00,56.7,54.4,29.87,SW,226,14.7,21.6,92,0.00, ,,-99.99,VWS V12.07,2013-03-17 05:32:00,
2013-03-17 01:37:00,56.7,54.4,29.87,SW,232,12.6,15.0,92,0.00, ,,-99.99,VWS V12.07,2013-03-17 05:37:00,
2013-03-17 01:42:00,56.8,54.4,29.88,SW,232,12.1,21.4,92,0.00, ,,-99.99,VWS V12.07,2013-03-17 05:42:00,
2013-03-17 01:47:00,56.9,54.3,29.88,WSW,237,15.0,21.4,91,0.00, ,,-99.99,VWS V12.07,2013-03-17 05:47:00,
2013-03-17 01:52:00,57.0,54.1,29.88,WSW,247,12.6,21.4,90,0.00, ,,-99.99,VWS V12.07,2013-03-17 05:52:00,
2013-03-17 01:57:00,57.2,54.2,29.88,SW,230,13.2,13.4,90,0.00, ,,-99.99,VWS V12.07,2013-03-17 05:57:00,
2013-03-17 02:02:00,57.1,54.2,29.88,SSW,201,14.4,19.9,90,0.00, ,,-99.99,VWS V12.07,2013-03-17 06:02:00,
2013-03-17 02:07:00,57.2,54.1,29.88,WSW,239,10.7,20.8,89,0.00, ,,-99.99,VWS V12.07,2013-03-17 06:07:00,
2013-03-17 02:12:00,57.1,53.9,29.88,SW,226,14.8,20.8,89,0.00, ,,-99.99,VWS V12.07,2013-03-17 06:12:00,
2013-03-17 02:17:00,57.5,54.4,29.88,SSW,211,9.3,13.7,89,0.00, ,,-99.99,VWS V12.07,2013-03-17 06:17:00,
2013-03-17 02:22:00,57.4,54.2,29.88,WSW,237,15.3,20.6,89,0.00, ,,-99.99,VWS V12.07,2013-03-17 06:22:00,
2013-03-17 02:27:00,57.3,54.1,29.88,WSW,244,16.3,21.4,89,0.00, ,,-99.99,VWS V12.07,2013-03-17 06:27:00,
2013-03-17 02:32:00,57.3,54.1,29.88,WSW,239,16.2,21.4,89,0.00, ,,-99.99,VWS V12.07,2013-03-17 06:32:00,
2013-03-17 02:37:00,57.0,53.8,29.88,WSW,246,15.3,15.3,89,0.00, ,,-99.99,VWS V12.07,2013-03-17 06:37:00,
2013-03-17 02:42:00,57.1,53.9,29.89,WSW,244,12.1,17.9,89,0.00, ,,-99.99,VWS V12.07,2013-03-17 06:42:00,
2013-03-17 02:47:00,57.6,54.3,29.89,SW,216,14.9,23.1,89,0.00, ,,-99.99,VWS V12.07,2013-03-17 06:47:00,
2013-03-17 02:53:00,57.4,54.0,29.89,WSW,237,12.1,23.1,88,0.00, ,,-99.99,VWS V12.07,2013-03-17 06:53:00,
2013-03-17 02:58:00,57.3,53.9,29.89,WSW,251,18.3,19.2,88,0.00, ,,-99.99,VWS V12.07,2013-03-17 06:58:00,
2013-03-17 03:03:00,57.3,53.8,29.89,SW,232,15.1,19.6,88,0.00, ,,-99.99,VWS V12.07,2013-03-17 07:03:00,
2013-03-17 03:08:00,57.4,54.1,29.89,SW,236,13.0,20.4,89,0.00, ,,-99.99,VWS V12.07,2013-03-17 07:08:00,
2013-03-17 03:13:00,57.3,54.1,29.89,WSW,251,12.2,21.9,89,0.00, ,,-99.99,VWS V12.07,2013-03-17 07:13:00,
2013-03-17 03:18:00,57.1,54.0,29.89,WSW,240,17.2,18.3,89,0.00, ,,-99.99,VWS V12.07,2013-03-17 07:18:00,
2013-03-17 03:23:00,57.2,54.0,29.89,WSW,243,12.4,18.7,89,0.00, ,,-99.99,VWS V12.07,2013-03-17 07:23:00,
2013-03-17 03:28:00,57.1,54.0,29.89,SW,228,11.5,18.7,89,0.00, ,,-99.99,VWS V12.07,2013-03-17 07:28:00,
2013-03-17 03:33:00,56.9,53.7,29.89,WSW,243,18.1,19.6,89,0.00, ,,-99.99,VWS V12.07,2013-03-17 07:33:00,
2013-03-17 03:39:00,57.0,53.6,29.89,WSW,254,22.4,22.4,88,0.00, ,,-99.99,VWS V12.07,2013-03-17 07:39:00,
2013-03-17 03:44:00,57.3,53.9,29.89,SW,230,15.9,22.4,88,0.00, ,,-99.99,VWS V12.07,2013-03-17 07:44:00,
2013-03-17 03:49:00,56.9,53.6,29.89,WSW,244,12.5,22.4,89,0.00, ,,-99.99,VWS V12.07,2013-03-17 07:49:00,
2013-03-17 03:55:00,56.8,53.6,29.89,WSW,258,17.2,22.4,89,0.00, ,,-99.99,VWS V12.07,2013-03-17 07:55:00,
2013-03-17 04:03:00,56.4,53.1,29.89,WSW,251,8.1,18.1,89,0.00, ,,-99.99,VWS V12.07,2013-03-17 08:03:00,
2013-03-17 04:08:00,56.7,53.6,29.89,WSW,244,10.3,18.1,89,0.00, ,,-99.99,VWS V12.07,2013-03-17 08:08:00,
2013-03-17 04:13:00,56.7,53.7,29.89,WSW,242,12.0,18.1,90,0.00, ,,-99.99,VWS V12.07,2013-03-17 08:13:00,
2013-03-17 04:18:00,56.3,53.2,29.89,WSW,243,9.4,14.8,89,0.00, ,,-99.99,VWS V12.07,2013-03-17 08:18:00,
2013-03-17 04:23:00,56.8,53.7,29.89,WSW,243,9.1,14.8,89,0.00, ,,-99.99,VWS V12.07,2013-03-17 08:23:00,
2013-03-17 04:28:00,56.7,53.6,29.89,West,261,10.1,14.8,89,0.00, ,,-99.99,VWS V12.07,2013-03-17 08:28:00,
2013-03-17 04:33:00,56.4,53.4,29.89,SW,233,9.8,14.8,90,0.00, ,,-99.99,VWS V12.07,2013-03-17 08:33:00,
2013-03-17 04:38:00,56.3,53.4,29.89,WSW,250,11.4,14.7,90,0.00, ,,-99.99,VWS V12.07,2013-03-17 08:38:00,
2013-03-17 04:43:00,56.1,53.2,29.88,SW,218,8.5,14.7,90,0.00, ,,-99.99,VWS V12.07,2013-03-17 08:43:00,
2013-03-17 04:48:00,56.5,53.8,29.88,SW,230,8.6,16.2,90,0.00, ,,-99.99,VWS V12.07,2013-03-17 08:48:00,
2013-03-17 04:53:00,56.1,53.5,29.89,SW,233,9.5,16.2,91,0.00, ,,-99.99,VWS V12.07,2013-03-17 08:53:00,
2013-03-17 04:58:00,55.6,53.3,29.89,SW,229,7.0,11.0,92,0.00, ,,-99.99,VWS V12.07,2013-03-17 08:58:00,
2013-03-17 05:03:00,55.8,53.7,29.89,WSW,239,9.6,11.6,93,0.00, ,,-99.99,VWS V12.07,2013-03-17 09:03:00,
2013-03-17 05:08:00,55.8,53.9,29.89,WSW,250,10.7,13.4,93,0.00, ,,-99.99,VWS V12.07,2013-03-17 09:08:00,
2013-03-17 05:13:00,55.2,53.4,29.89,SW,228,9.4,13.4,94,0.00, ,,-99.99,VWS V12.07,2013-03-17 09:13:00,
2013-03-17 05:19:00,55.4,53.7,29.89,West,275,11.6,13.1,94,0.00, ,,-99.99,VWS V12.07,2013-03-17 09:19:00,
2013-03-17 05:24:00,55.2,53.4,29.89,WSW,244,9.7,13.9,94,0.00, ,,-99.99,VWS V12.07,2013-03-17 09:24:00,
2013-03-17 05:29:00,55.5,53.7,29.90,WSW,253,9.9,13.9,94,0.00, ,,-99.99,VWS V12.07,2013-03-17 09:29:00,
2013-03-17 05:34:00,55.4,53.4,29.90,West,260,8.1,15.3,93,0.00, ,,-99.99,VWS V12.07,2013-03-17 09:34:00,
2013-03-17 05:39:00,55.3,53.0,29.90,SW,225,9.2,13.7,92,0.00, ,,-99.99,VWS V12.07,2013-03-17 09:39:00,
2013-03-17 05:44:00,55.8,53.4,29.90,WSW,250,9.0,13.7,92,0.00, ,,-99.99,VWS V12.07,2013-03-17 09:44:00,
2013-03-17 05:49:00,55.9,53.4,29.91,WSW,249,8.0,14.3,91,0.00, ,,-99.99,VWS V12.07,2013-03-17 09:49:00,
2013-03-17 05:54:00,55.6,53.0,29.91,West,265,8.9,15.2,91,0.00, ,,-99.99,VWS V12.07,2013-03-17 09:54:00,
2013-03-17 05:59:00,56.1,53.6,29.92,WSW,251,11.6,13.2,91,0.00, ,,-99.99,VWS V12.07,2013-03-17 09:59:00,
2013-03-17 06:04:00,55.8,53.4,29.92,WSW,257,9.5,14.6,92,0.00, ,,-99.99,VWS V12.07,2013-03-17 10:04:00,
2013-03-17 06:09:00,55.5,53.1,29.93,WSW,247,12.7,14.6,92,0.00, ,,-99.99,VWS V12.07,2013-03-17 10:09:00,
2013-03-17 06:14:00,56.0,53.7,29.93,WSW,246,6.6,14.6,92,0.00, ,,-99.99,VWS V12.07,2013-03-17 10:14:00,
2013-03-17 06:19:00,55.9,53.6,29.93,West,261,9.6,10.9,92,0.00, ,,-99.99,VWS V12.07,2013-03-17 10:19:00,
2013-03-17 06:24:00,55.7,53.5,29.93,SW,233,8.9,13.8,92,0.00, ,,-99.99,VWS V12.07,2013-03-17 10:24:00,
2013-03-17 06:29:00,55.5,53.4,29.94,West,261,8.6,13.8,93,0.00, ,,-99.99,VWS V12.07,2013-03-17 10:29:00,
2013-03-17 06:34:00,55.9,53.8,29.94,WSW,247,4.2,13.8,93,0.00, ,,-99.99,VWS V12.07,2013-03-17 10:34:00,
2013-03-17 06:39:00,56.2,54.1,29.95,WNW,288,0.0,0.0,92,0.00, ,,-99.99,VWS V12.07,2013-03-17 10:39:00,
2013-03-17 06:44:00,55.0,52.8,29.96,North,5,12.2,18.5,92,0.00, ,,-99.99,VWS V12.07,2013-03-17 10:44:00,
2013-03-17 06:49:00,54.7,52.5,29.96,North,7,8.5,19.0,92,0.00, ,,-99.99,VWS V12.07,2013-03-17 10:49:00,
2013-03-17 06:54:00,55.5,53.2,29.96,NE,42,0.0,19.0,92,0.00, ,,-99.99,VWS V12.07,2013-03-17 10:54:00,
2013-03-17 06:59:00,55.4,52.7,29.97,ENE,76,3.4,8.8,91,0.00, ,,-99.99,VWS V12.07,2013-03-17 10:59:00,
2013-03-17 07:04:00,55.7,52.9,29.97,ENE,73,0.0,8.8,90,0.00, ,,-99.99,VWS V12.07,2013-03-17 11:04:00,
2013-03-17 07:09:00,55.9,53.2,29.96,ENE,73,0.0,8.8,91,0.00, ,,-99.99,VWS V12.07,2013-03-17 11:09:00,
2013-03-17 07:14:00,55.9,53.3,29.97,ENE,73,0.0,8.8,91,0.00, ,,-99.99,VWS V12.07,2013-03-17 11:14:00,
2013-03-17 07:19:00,55.9,53.3,29.97,ENE,73,0.0,0.0,91,0.00, ,,-99.99,VWS V12.07,2013-03-17 11:19:00,
2013-03-17 07:24:00,55.7,53.2,29.97,ENE,73,0.0,0.0,91,0.00, ,,-99.99,VWS V12.07,2013-03-17 11:24:00,
2013-03-17 07:29:00,55.7,53.2,29.97,ENE,73,0.0,0.0,91,0.00, ,,-99.99,VWS V12.07,2013-03-17 11:29:00,
2013-03-17 07:34:00,55.7,53.3,29.97,ENE,73,0.0,0.0,92,0.00, ,,-99.99,VWS V12.07,2013-03-17 11:34:00,
2013-03-17 07:39:00,55.6,53.4,29.98,NE,56,0.0,0.0,92,0.00, ,,-99.99,VWS V12.07,2013-03-17 11:39:00,
2013-03-17 07:44:00,56.1,53.1,29.98,NNE,12,5.8,7.8,90,0.00, ,,-99.99,VWS V12.07,2013-03-17 11:44:00,
2013-03-17 07:49:00,54.8,52.0,29.98,NE,38,9.3,10.6,90,0.00, ,,-99.99,VWS V12.07,2013-03-17 11:49:00,
2013-03-17 07:54:00,54.1,51.5,29.99,NNE,15,9.9,14.2,91,0.00, ,,-99.99,VWS V12.07,2013-03-17 11:54:00,
2013-03-17 07:59:00,53.9,51.5,29.99,ENE,66,3.5,11.4,92,0.00, ,,-99.99,VWS V12.07,2013-03-17 11:59:00,
2013-03-17 08:04:00,53.4,51.6,29.99,NE,56,6.7,16.5,94,0.00, ,,-99.99,VWS V12.07,2013-03-17 12:04:00,
2013-03-17 08:09:00,52.3,51.3,30.00,NE,49,17.1,21.2,96,0.00, ,,-99.99,VWS V12.07,2013-03-17 12:09:00,
2013-03-17 08:14:00,51.4,51.4,30.00,ENE,76,13.9,21.2,100,0.00, ,,-99.99,VWS V12.07,2013-03-17 12:14:00,
2013-03-17 08:19:00,51.5,51.5,30.00,ENE,76,17.0,20.8,100,0.00, ,,-99.99,VWS V12.07,2013-03-17 12:19:00,
2013-03-17 08:24:00,51.3,51.3,30.00,ENE,67,14.7,20.9,100,0.00, ,,-99.99,VWS V12.07,2013-03-17 12:24:00,
2013-03-17 08:29:00,51.4,51.4,30.00,ENE,69,14.1,22.6,100,0.00, ,,-99.99,VWS V12.07,2013-03-17 12:29:00,
2013-03-17 08:34:00,51.1,51.1,30.00,ENE,78,17.7,22.6,100,0.00, ,,-99.99,VWS V12.07,2013-03-17 12:34:00,
2013-03-17 08:39:00,51.7,51.7,30.00,ENE,70,13.5,17.0,100,0.00, ,,-99.99,VWS V12.07,2013-03-17 12:39:00,
2013-03-17 08:44:00,51.0,51.0,30.00,NE,36,12.1,21.5,100,0.00, ,,-99.99,VWS V12.07,2013-03-17 12:44:00,
2013-03-17 08:49:00,51.7,51.7,30.00,NE,43,8.1,21.5,100,0.00, ,,-99.99,VWS V12.07,2013-03-17 12:49:00,
2013-03-17 08:54:00,52.2,52.2,30.00,NE,56,7.1,21.5,100,0.00, ,,-99.99,VWS V12.07,2013-03-17 12:54:00,
2013-03-17 08:59:00,52.0,52.0,30.00,ESE,121,5.0,9.2,100,0.00, ,,-99.99,VWS V12.07,2013-03-17 12:59:00,
2013-03-17 09:04:00,52.0,52.0,30.00,NE,45,8.1,12.6,100,0.00, ,,-99.99,VWS V12.07,2013-03-17 13:04:00,
2013-03-17 09:10:00,52.1,52.1,30.01,East,85,5.7,13.0,100,0.00, ,,-99.99,VWS V12.07,2013-03-17 13:10:00,
2013-03-17 09:15:00,51.9,51.9,30.00,East,90,7.0,14.1,100,0.00, ,,-99.99,VWS V12.07,2013-03-17 13:15:00,
2013-03-17 09:20:00,52.2,52.2,30.01,East,92,11.0,14.9,100,0.00, ,,-99.99,VWS V12.07,2013-03-17 13:20:00,
2013-03-17 09:25:00,51.7,51.7,30.01,ENE,70,13.9,18.0,100,0.00, ,,-99.99,VWS V12.07,2013-03-17 13:25:00,
2013-03-17 09:30:00,52.4,52.4,30.01,ENE,63,13.6,18.0,100,0.00, ,,-99.99,VWS V12.07,2013-03-17 13:30:00,
2013-03-17 09:35:00,52.3,51.8,30.01,East,80,13.0,18.0,98,0.00, ,,-99.99,VWS V12.07,2013-03-17 13:35:00,
2013-03-17 09:40:00,52.9,51.7,30.02,NE,56,10.5,16.5,96,0.00, ,,-99.99,VWS V12.07,2013-03-17 13:40:00,
2013-03-17 09:45:00,53.4,51.5,30.02,ENE,71,9.4,16.5,93,0.00, ,,-99.99,VWS V12.07,2013-03-17 13:45:00,
2013-03-17 09:50:00,54.2,52.1,30.02,ENE,57,6.5,16.5,92,0.00, ,,-99.99,VWS V12.07,2013-03-17 13:50:00,
2013-03-17 09:55:00,55.2,53.2,30.02,East,98,6.3,16.5,93,0.00, ,,-99.99,VWS V12.07,2013-03-17 13:55:00,
2013-03-17 10:00:00,55.5,52.7,30.02,East,85,8.0,10.3,90,0.00, ,,-99.99,VWS V12.07,2013-03-17 14:00:00,
2013-03-17 10:05:00,55.7,52.6,30.02,ENE,63,5.0,11.1,89,0.00, ,,-99.99,VWS V12.07,2013-03-17 14:05:00,
2013-03-17 10:10:00,55.5,51.8,30.02,NE,38,7.8,15.0,87,0.00, ,,-99.99,VWS V12.07,2013-03-17 14:10:00,
2013-03-17 10:15:00,55.7,51.8,30.02,East,88,12.0,15.0,87,0.00, ,,-99.99,VWS V12.07,2013-03-17 14:15:00,
2013-03-17 10:20:00,55.5,51.4,30.02,ESE,111,8.6,16.0,86,0.00, ,,-99.99,VWS V12.07,2013-03-17 14:20:00,
2013-03-17 10:25:00,56.2,52.0,30.02,East,97,7.3,16.0,86,0.00, ,,-99.99,VWS V12.07,2013-03-17 14:25:00,
2013-03-17 10:30:00,56.5,52.0,30.02,East,100,9.2,16.0,85,0.00, ,,-99.99,VWS V12.07,2013-03-17 14:30:00,
2013-03-17 10:35:00,56.3,51.8,30.02,East,90,9.7,16.0,85,0.00, ,,-99.99,VWS V12.07,2013-03-17 14:35:00,
2013-03-17 10:40:00,56.1,51.7,30.02,East,88,9.0,13.0,85,0.00, ,,-99.99,VWS V12.07,2013-03-17 14:40:00,
2013-03-17 10:45:00,57.0,52.2,30.02,ENE,69,11.8,15.6,84,0.00, ,,-99.99,VWS V12.07,2013-03-17 14:45:00,
2013-03-17 10:50:00,56.4,51.9,30.02,ENE,67,13.9,16.3,85,0.00, ,,-99.99,VWS V12.07,2013-03-17 14:50:00,
2013-03-17 10:55:00,56.1,51.7,30.02,ENE,69,14.4,16.3,85,0.00, ,,-99.99,VWS V12.07,2013-03-17 14:55:00,
2013-03-17 11:00:00,55.9,51.7,30.02,ENE,64,14.3,14.5,86,0.00, ,,-99.99,VWS V12.07,2013-03-17 15:00:00,
2013-03-17 11:05:00,56.3,52.1,30.02,ENE,64,11.6,16.0,86,0.00, ,,-99.99,VWS V12.07,2013-03-17 15:05:00,
2013-03-17 11:10:00,56.0,51.9,30.02,East,88,12.1,16.6,86,0.00, ,,-99.99,VWS V12.07,2013-03-17 15:10:00,
2013-03-17 11:15:00,55.7,51.7,30.03,ENE,69,11.4,16.6,86,0.00, ,,-99.99,VWS V12.07,2013-03-17 15:15:00,
2013-03-17 11:20:00,55.9,52.0,30.03,ENE,60,12.7,14.9,87,0.00, ,,-99.99,VWS V12.07,2013-03-17 15:20:00,
2013-03-17 11:25:00,56.5,52.8,30.03,East,88,9.8,16.8,88,0.00, ,,-99.99,VWS V12.07,2013-03-17 15:25:00,
2013-03-17 11:30:00,55.6,52.1,30.04,ENE,60,13.5,16.8,88,0.00, ,,-99.99,VWS V12.07,2013-03-17 15:30:00,
2013-03-17 11:35:00,55.6,52.3,30.04,ENE,76,14.9,17.1,89,0.00, ,,-99.99,VWS V12.07,2013-03-17 15:35:00,
2013-03-17 11:40:00,56.0,52.8,30.04,ENE,67,11.6,15.3,89,0.00, ,,-99.99,VWS V12.07,2013-03-17 15:40:00,
2013-03-17 11:45:00,56.8,53.9,30.04,East,85,13.7,16.5,90,0.00, ,,-99.99,VWS V12.07,2013-03-17 15:45:00,
2013-03-17 11:50:00,56.1,53.4,30.04,ENE,71,11.7,16.9,91,0.00, ,,-99.99,VWS V12.07,2013-03-17 15:50:00,
2013-03-17 11:55:00,55.5,53.0,30.05,ENE,60,16.7,21.1,91,0.00, ,,-99.99,VWS V12.07,2013-03-17 15:55:00,
2013-03-17 12:00:00,55.5,53.7,30.04,ENE,60,12.6,17.5,94,0.00, ,,-99.99,VWS V12.07,2013-03-17 16:00:00,
2013-03-17 12:05:00,55.3,53.0,30.04,East,97,13.3,18.2,92,0.00, ,,-99.99,VWS V12.07,2013-03-17 16:05:00,
2013-03-17 12:10:00,56.1,53.4,30.04,ESE,114,11.3,18.2,91,0.00, ,,-99.99,VWS V12.07,2013-03-17 16:10:00,
2013-03-17 12:15:00,56.1,53.5,30.04,ENE,57,11.3,19.9,91,0.00, ,,-99.99,VWS V12.07,2013-03-17 16:15:00,
2013-03-17 12:20:00,55.3,52.5,30.04,ENE,59,15.2,18.0,90,0.00, ,,-99.99,VWS V12.07,2013-03-17 16:20:00,
2013-03-17 12:25:00,54.7,52.4,30.04,ENE,62,14.2,21.1,92,0.00, ,,-99.99,VWS V12.07,2013-03-17 16:25:00,
2013-03-17 12:30:00,54.9,52.8,30.04,NE,52,7.8,21.1,93,0.00, ,,-99.99,VWS V12.07,2013-03-17 16:30:00,
2013-03-17 12:35:00,53.7,51.6,30.04,East,84,5.8,21.3,93,0.00, ,,-99.99,VWS V12.07,2013-03-17 16:35:00,
2013-03-17 12:40:00,53.6,51.2,30.04,ENE,64,12.1,18.7,92,0.00, ,,-99.99,VWS V12.07,2013-03-17 16:40:00,
2013-03-17 12:45:00,53.6,51.6,30.05,ENE,70,8.9,19.7,93,0.00, ,,-99.99,VWS V12.07,2013-03-17 16:45:00,
2013-03-17 12:50:00,53.6,51.3,30.04,ENE,74,11.7,19.7,92,0.00, ,,-99.99,VWS V12.07,2013-03-17 16:50:00,
2013-03-17 12:55:00,52.7,50.9,30.04,ENE,63,14.5,22.0,94,0.00, ,,-99.99,VWS V12.07,2013-03-17 16:55:00,
2013-03-17 13:00:00,53.3,51.8,30.05,ENE,71,9.1,18.1,94,0.00, ,,-99.99,VWS V12.07,2013-03-17 17:00:00,
2013-03-17 13:05:00,54.1,52.0,30.05,NNE,22,8.7,18.1,93,0.00, ,,-99.99,VWS V12.07,2013-03-17 17:05:00,
2013-03-17 13:10:00,53.8,51.3,30.05,ENE,74,11.4,18.1,91,0.00, ,,-99.99,VWS V12.07,2013-03-17 17:10:00,
2013-03-17 13:15:00,54.2,51.8,30.05,NE,56,6.6,18.1,91,0.00, ,,-99.99,VWS V12.07,2013-03-17 17:15:00,
2013-03-17 13:20:00,54.6,52.2,30.05,ESE,107,11.2,15.7,91,0.00, ,,-99.99,VWS V12.07,2013-03-17 17:20:00,
2013-03-17 13:25:00,54.9,52.4,30.05,ENE,64,4.7,15.7,91,0.00, ,,-99.99,VWS V12.07,2013-03-17 17:25:00,
2013-03-17 13:30:00,55.1,52.5,30.05,NNE,31,8.4,15.7,91,0.00, ,,-99.99,VWS V12.07,2013-03-17 17:30:00,
2013-03-17 13:35:00,54.9,52.3,30.05,East,88,6.1,16.8,91,0.00, ,,-99.99,VWS V12.07,2013-03-17 17:35:00,
2013-03-17 13:40:00,54.7,51.9,30.05,NE,52,6.8,13.6,90,0.00, ,,-99.99,VWS V12.07,2013-03-17 17:40:00,
2013-03-17 13:45:00,54.6,52.0,30.05,North,7,18.4,26.8,91,0.00, ,,-99.99,VWS V12.07,2013-03-17 17:45:00,
2013-03-17 13:50:00,54.7,52.0,30.05,NE,38,8.4,26.8,90,0.00, ,,-99.99,VWS V12.07,2013-03-17 17:50:00,
2013-03-17 13:55:00,54.2,51.5,30.05,NE,48,8.0,26.8,91,0.00, ,,-99.99,VWS V12.07,2013-03-17 17:55:00,
2013-03-17 14:00:00,54.5,51.7,30.05,ENE,62,8.8,16.2,90,0.00, ,,-99.99,VWS V12.07,2013-03-17 18:00:00,
2013-03-17 14:05:00,54.5,51.6,30.04,NNE,32,10.0,22.1,90,0.00, ,,-99.99,VWS V12.07,2013-03-17 18:05:00,
2013-03-17 14:10:00,54.5,51.7,30.05,NNE,25,13.9,24.9,90,0.00, ,,-99.99,VWS V12.07,2013-03-17 18:10:00,
2013-03-17 14:15:00,53.8,50.5,30.05,ENE,76,8.0,24.9,89,0.00, ,,-99.99,VWS V12.07,2013-03-17 18:15:00,
2013-03-17 14:20:00,53.6,50.9,30.04,NE,45,17.5,20.6,90,0.00, ,,-99.99,VWS V12.07,2013-03-17 18:20:00,
2013-03-17 14:25:00,54.1,51.4,30.05,ENE,67,10.6,22.4,91,0.00, ,,-99.99,VWS V12.07,2013-03-17 18:25:00,
2013-03-17 14:30:00,54.4,51.2,30.05,ENE,66,11.3,22.4,89,0.00, ,,-99.99,VWS V12.07,2013-03-17 18:30:00,
2013-03-17 14:35:00,54.1,50.8,30.04,East,90,15.8,22.4,88,0.00, ,,-99.99,VWS V12.07,2013-03-17 18:35:00,
2013-03-17 14:41:00,53.8,49.4,30.04,East,85,15.4,24.2,85,0.00, ,,-99.99,VWS V12.07,2013-03-17 18:41:00,
2013-03-17 14:46:00,54.1,48.9,30.03,ENE,76,23.8,25.2,82,0.00, ,,-99.99,VWS V12.07,2013-03-17 18:46:00,
2013-03-17 14:51:00,54.3,48.0,30.03,NE,48,10.9,27.3,79,0.00, ,,-99.99,VWS V12.07,2013-03-17 18:51:00,
2013-03-17 14:56:00,55.0,48.8,30.03,NNE,29,17.7,27.3,79,0.00, ,,-99.99,VWS V12.07,2013-03-17 18:56:00,
2013-03-17 15:01:00,55.0,48.7,30.03,ENE,60,16.1,23.8,79,0.00, ,,-99.99,VWS V12.07,2013-03-17 19:01:00,
2013-03-17 15:07:00,54.9,48.6,30.03,NNE,32,14.2,23.8,79,0.00, ,,-99.99,VWS V12.07,2013-03-17 19:07:00,
2013-03-17 15:12:00,55.2,49.3,30.02,East,90,15.1,23.8,80,0.00, ,,-99.99,VWS V12.07,2013-03-17 19:12:00,
2013-03-17 15:17:00,54.4,49.2,30.02,ENE,69,13.8,16.4,83,0.00, ,,-99.99,VWS V12.07,2013-03-17 19:17:00,
2013-03-17 15:22:00,54.2,49.3,30.02,ENE,78,19.1,25.5,84,0.00, ,,-99.99,VWS V12.07,2013-03-17 19:22:00,
2013-03-17 15:27:00,54.7,49.3,30.02,ENE,64,12.0,25.5,82,0.00, ,,-99.99,VWS V12.07,2013-03-17 19:27:00,
2013-03-17 15:32:00,54.6,49.9,30.02,East,83,15.2,25.5,84,0.00, ,,-99.99,VWS V12.07,2013-03-17 19:32:00,
2013-03-17 15:37:00,54.4,49.6,30.02,East,81,11.7,13.8,84,0.00, ,,-99.99,VWS V12.07,2013-03-17 19:37:00,
2013-03-17 15:43:00,54.2,48.9,30.02,NE,43,17.1,25.7,82,0.00, ,,-99.99,VWS V12.07,2013-03-17 19:43:00,
2013-03-17 15:48:00,53.6,49.2,30.02,East,81,23.3,29.3,85,0.00, ,,-99.99,VWS V12.07,2013-03-17 19:48:00,
2013-03-17 15:53:00,53.8,49.5,30.02,NNE,22,18.4,29.3,85,0.00, ,,-99.99,VWS V12.07,2013-03-17 19:53:00,
2013-03-17 15:58:00,53.5,48.8,30.02,ENE,71,19.8,29.0,84,0.00, ,,-99.99,VWS V12.07,2013-03-17 19:58:00,
2013-03-17 16:03:00,53.0,49.1,30.02,East,88,16.5,29.0,86,0.00, ,,-99.99,VWS V12.07,2013-03-17 20:03:00,
2013-03-17 16:08:00,52.8,49.3,30.02,NE,56,20.9,29.0,88,0.00, ,,-99.99,VWS V12.07,2013-03-17 20:08:00,
2013-03-17 16:13:00,52.5,49.1,30.03,ENE,69,17.7,29.0,88,0.00, ,,-99.99,VWS V12.07,2013-03-17 20:13:00,
2013-03-17 16:18:00,52.1,48.6,30.03,NE,45,9.1,25.0,88,0.00, ,,-99.99,VWS V12.07,2013-03-17 20:18:00,
2013-03-17 16:23:00,51.8,48.6,30.03,NNE,24,13.9,25.4,89,0.00, ,,-99.99,VWS V12.07,2013-03-17 20:23:00,
2013-03-17 16:28:00,52.4,49.3,30.04,NE,38,12.3,25.4,89,0.00, ,,-99.99,VWS V12.07,2013-03-17 20:28:00,
2013-03-17 16:33:00,52.1,48.8,30.04,NNE,26,12.8,25.4,88,0.00, ,,-99.99,VWS V12.07,2013-03-17 20:33:00,
2013-03-17 16:38:00,51.2,48.2,30.04,NE,50,11.1,16.8,90,0.00, ,,-99.99,VWS V12.07,2013-03-17 20:38:00,
2013-03-17 16:43:00,51.4,48.5,30.04,ENE,66,10.4,19.9,90,0.00, ,,-99.99,VWS V12.07,2013-03-17 20:43:00,
2013-03-17 16:48:00,52.2,49.1,30.05,NE,45,10.7,19.9,89,0.00, ,,-99.99,VWS V12.07,2013-03-17 20:48:00,
2013-03-17 16:53:00,51.6,48.8,30.05,ENE,59,15.3,24.5,90,0.00, ,,-99.99,VWS V12.07,2013-03-17 20:53:00,
2013-03-17 16:58:00,52.1,49.3,30.05,NNE,18,13.3,15.5,90,0.00, ,,-99.99,VWS V12.07,2013-03-17 20:58:00,
2013-03-17 17:03:00,51.8,48.7,30.05,ENE,73,16.3,23.8,89,0.00, ,,-99.99,VWS V12.07,2013-03-17 21:03:00,
2013-03-17 17:08:00,51.4,48.2,30.05,NE,53,19.0,27.3,89,0.00, ,,-99.99,VWS V12.07,2013-03-17 21:08:00,
2013-03-17 17:13:00,51.1,48.4,30.05,NE,48,14.9,27.3,90,0.00, ,,-99.99,VWS V12.07,2013-03-17 21:13:00,
2013-03-17 17:18:00,51.4,48.7,30.05,East,92,14.3,19.4,90,0.00, ,,-99.99,VWS V12.07,2013-03-17 21:18:00,
2013-03-17 17:23:00,51.7,48.6,30.05,NE,43,8.7,20.9,89,0.00, ,,-99.99,VWS V12.07,2013-03-17 21:23:00,
2013-03-17 17:28:00,49.8,46.6,30.06,ENE,78,17.3,26.9,89,0.00, ,,-99.99,VWS V12.07,2013-03-17 21:28:00,
2013-03-17 17:33:00,51.0,48.0,30.06,ENE,62,9.9,28.0,89,0.00, ,,-99.99,VWS V12.07,2013-03-17 21:33:00,
2013-03-17 17:38:00,51.2,48.2,30.06,NE,49,11.2,23.3,89,0.00, ,,-99.99,VWS V12.07,2013-03-17 21:38:00,
2013-03-17 17:43:00,50.0,47.1,30.06,NE,52,19.0,26.1,90,0.00, ,,-99.99,VWS V12.07,2013-03-17 21:43:00,
2013-03-17 17:48:00,50.7,48.1,30.07,ENE,59,11.9,28.0,91,0.00, ,,-99.99,VWS V12.07,2013-03-17 21:48:00,
2013-03-17 17:53:00,49.9,47.3,30.06,East,88,20.1,28.0,91,0.00, ,,-99.99,VWS V12.07,2013-03-17 21:53:00,
2013-03-17 17:58:00,50.0,47.5,30.06,NE,38,16.2,20.0,91,0.00, ,,-99.99,VWS V12.07,2013-03-17 21:58:00,
2013-03-17 18:03:00,49.4,46.8,30.06,East,85,17.2,30.4,91,0.00, ,,-99.99,VWS V12.07,2013-03-17 22:03:00,
2013-03-17 18:08:00,49.3,46.8,30.07,ESE,104,9.3,30.4,91,0.00, ,,-99.99,VWS V12.07,2013-03-17 22:08:00,
2013-03-17 18:13:00,49.0,46.7,30.07,ENE,77,20.6,30.4,92,0.00, ,,-99.99,VWS V12.07,2013-03-17 22:13:00,
2013-03-17 18:18:00,48.8,46.7,30.08,NNE,33,16.5,18.3,92,0.00, ,,-99.99,VWS V12.07,2013-03-17 22:18:00,
2013-03-17 18:23:00,48.8,46.8,30.08,NE,49,14.4,26.8,93,0.00, ,,-99.99,VWS V12.07,2013-03-17 22:23:00,
2013-03-17 18:28:00,48.7,46.7,30.08,ENE,67,12.0,30.6,93,0.00, ,,-99.99,VWS V12.07,2013-03-17 22:28:00,
2013-03-17 18:33:00,48.3,46.4,30.08,NE,50,18.3,30.6,93,0.00, ,,-99.99,VWS V12.07,2013-03-17 22:33:00,
2013-03-17 18:38:00,48.8,47.0,30.09,NNE,25,12.7,19.7,94,0.00, ,,-99.99,VWS V12.07,2013-03-17 22:38:00,
2013-03-17 18:43:00,48.3,46.7,30.09,NE,48,13.9,26.7,94,0.00, ,,-99.99,VWS V12.07,2013-03-17 22:43:00,
2013-03-17 18:48:00,48.4,46.5,30.09,East,90,18.1,26.7,93,0.00, ,,-99.99,VWS V12.07,2013-03-17 22:48:00,
2013-03-17 18:54:00,48.3,46.4,30.10,NE,35,16.8,29.9,93,0.00, ,,-99.99,VWS V12.07,2013-03-17 22:54:00,
2013-03-17 18:59:00,48.4,46.6,30.10,ENE,63,13.2,19.3,94,0.00, ,,-99.99,VWS V12.07,2013-03-17 22:59:00,
2013-03-17 19:05:00,48.7,46.9,30.11,NE,56,14.5,22.6,94,0.00, ,,-99.99,VWS V12.07,2013-03-17 23:05:00,
2013-03-17 19:12:00,48.8,47.2,30.11,NE,48,11.7,24.4,94,0.00, ,,-99.99,VWS V12.07,2013-03-17 23:12:00,
2013-03-17 19:17:00,48.5,46.7,30.11,NNE,14,15.8,16.3,94,0.00, ,,-99.99,VWS V12.07,2013-03-17 23:17:00,
2013-03-17 19:22:00,48.5,46.8,30.12,NNE,24,9.7,25.7,94,0.00, ,,-99.99,VWS V12.07,2013-03-17 23:22:00,
2013-03-17 19:27:00,48.1,46.4,30.12,NE,39,15.9,25.7,94,0.00, ,,-99.99,VWS V12.07,2013-03-17 23:27:00,
2013-03-17 19:33:00,47.9,46.1,30.12,ENE,59,14.1,25.7,94,0.00, ,,-99.99,VWS V12.07,2013-03-17 23:33:00,
2013-03-17 19:38:00,48.6,47.0,30.13,ENE,59,13.3,16.3,94,0.00, ,,-99.99,VWS V12.07,2013-03-17 23:38:00,
2013-03-17 19:43:00,48.6,46.8,30.13,NNE,26,10.6,18.6,93,0.00, ,,-99.99,VWS V12.07,2013-03-17 23:43:00,
2013-03-17 19:48:00,48.6,46.9,30.12,North,10,11.3,21.1,94,0.00, ,,-99.99,VWS V12.07,2013-03-17 23:48:00,
2013-03-17 19:53:00,48.6,47.0,30.12,NE,46,14.2,21.1,94,0.00, ,,-99.99,VWS V12.07,2013-03-17 23:53:00,
2013-03-17 19:58:00,48.6,46.8,30.12,NNE,17,7.0,16.7,94,0.00, ,,-99.99,VWS V12.07,2013-03-17 23:58:00,
2013-03-17 20:03:00,48.1,46.5,30.13,North,11,12.1,19.1,94,0.00, ,,-99.99,VWS V12.07,2013-03-18 00:03:00,
2013-03-17 20:08:00,47.8,46.0,30.13,NNE,24,12.2,19.5,94,0.00, ,,-99.99,VWS V12.07,2013-03-18 00:08:00,
2013-03-17 20:14:00,48.3,46.6,30.13,NNW,332,14.2,24.3,94,0.00, ,,-99.99,VWS V12.07,2013-03-18 00:14:00,
2013-03-17 20:19:00,48.2,46.4,30.14,NNE,24,11.7,23.3,93,0.00, ,,-99.99,VWS V12.07,2013-03-18 00:19:00,
2013-03-17 20:24:00,47.4,45.7,30.13,East,80,9.5,29.3,94,0.00, ,,-99.99,VWS V12.07,2013-03-18 00:24:00,
2013-03-17 20:29:00,48.1,46.5,30.14,NE,49,16.0,29.3,94,0.00, ,,-99.99,VWS V12.07,2013-03-18 00:29:00,
2013-03-17 20:34:00,48.0,46.3,30.14,NE,40,14.7,29.3,94,0.00, ,,-99.99,VWS V12.07,2013-03-18 00:34:00,
2013-03-17 20:39:00,47.9,46.0,30.14,NE,42,17.0,26.3,93,0.00, ,,-99.99,VWS V12.07,2013-03-18 00:39:00,
2013-03-17 20:44:00,48.1,46.5,30.13,NNE,26,9.3,27.7,94,0.00, ,,-99.99,VWS V12.07,2013-03-18 00:44:00,
2013-03-17 20:49:00,48.2,46.6,30.13,East,83,17.5,27.7,94,0.00, ,,-99.99,VWS V12.07,2013-03-18 00:49:00,
2013-03-17 20:54:00,47.9,46.3,30.13,NE,50,22.3,27.7,94,0.00, ,,-99.99,VWS V12.07,2013-03-18 00:54:00,
2013-03-17 20:59:00,48.0,46.4,30.13,ENE,66,10.9,29.8,94,0.00, ,,-99.99,VWS V12.07,2013-03-18 00:59:00,
2013-03-17 21:04:00,48.0,46.5,30.14,ENE,70,13.7,29.8,94,0.00, ,,-99.99,VWS V12.07,2013-03-18 01:04:00,
2013-03-17 21:09:00,48.1,46.6,30.14,NE,38,6.5,29.8,94,0.00, ,,-99.99,VWS V12.07,2013-03-18 01:09:00,
2013-03-17 21:14:00,47.8,46.2,30.14,NNE,18,17.1,29.8,94,0.00, ,,-99.99,VWS V12.07,2013-03-18 01:14:00,
2013-03-17 21:19:00,47.8,46.0,30.14,ENE,62,9.6,24.5,94,0.00, ,,-99.99,VWS V12.07,2013-03-18 01:19:00,
2013-03-17 21:24:00,47.9,46.2,30.14,NE,52,16.5,24.9,94,0.00, ,,-99.99,VWS V12.07,2013-03-18 01:24:00,
2013-03-17 21:29:00,47.8,45.9,30.15,NNE,12,19.1,24.9,93,0.00, ,,-99.99,VWS V12.07,2013-03-18 01:29:00,
2013-03-17 21:34:00,47.9,46.2,30.15,NE,35,8.6,25.4,94,0.00, ,,-99.99,VWS V12.07,2013-03-18 01:34:00,
2013-03-17 21:39:00,47.5,45.8,30.15,NNE,15,9.5,23.7,94,0.00, ,,-99.99,VWS V12.07,2013-03-18 01:39:00,
2013-03-17 21:44:00,47.8,46.2,30.15,East,80,13.0,27.3,94,0.00, ,,-99.99,VWS V12.07,2013-03-18 01:44:00,
2013-03-17 21:49:00,47.8,46.1,30.15,North,351,16.6,27.3,94,0.00, ,,-99.99,VWS V12.07,2013-03-18 01:49:00,
2013-03-17 21:54:00,47.8,46.2,30.15,North,11,15.6,27.3,94,0.00, ,,-99.99,VWS V12.07,2013-03-18 01:54:00,
2013-03-17 21:59:00,47.7,46.0,30.15,NE,53,16.3,23.0,94,0.00, ,,-99.99,VWS V12.07,2013-03-18 01:59:00,
2013-03-17 22:04:00,48.4,46.5,30.15,NNE,25,13.6,23.0,93,0.00, ,,-99.99,VWS V12.07,2013-03-18 02:04:00,
2013-03-17 22:09:00,48.3,46.3,30.15,East,81,6.0,23.0,93,0.00, ,,-99.99,VWS V12.07,2013-03-18 02:09:00,
2013-03-17 22:14:00,47.7,45.8,30.15,NE,35,11.5,23.0,93,0.00, ,,-99.99,VWS V12.07,2013-03-18 02:14:00,
2013-03-17 22:19:00,47.7,45.7,30.16,NE,39,12.4,21.0,93,0.00, ,,-99.99,VWS V12.07,2013-03-18 02:19:00,
2013-03-17 22:24:00,47.5,45.3,30.16,NNE,33,16.4,28.5,92,0.00, ,,-99.99,VWS V12.07,2013-03-18 02:24:00,
2013-03-17 22:29:00,47.8,45.9,30.16,NE,55,21.9,28.5,93,0.00, ,,-99.99,VWS V12.07,2013-03-18 02:29:00,
2013-03-17 22:34:00,48.4,46.7,30.17,North,5,7.8,28.5,94,0.00, ,,-99.99,VWS V12.07,2013-03-18 02:34:00,
2013-03-17 22:39:00,48.4,46.6,30.17,NE,46,12.4,16.9,94,0.00, ,,-99.99,VWS V12.07,2013-03-18 02:39:00,
2013-03-17 22:44:00,48.1,46.3,30.17,NNE,22,11.7,23.4,93,0.00, ,,-99.99,VWS V12.07,2013-03-18 02:44:00,
2013-03-17 22:49:00,48.3,46.5,30.17,NNE,24,16.8,23.4,93,0.00, ,,-99.99,VWS V12.07,2013-03-18 02:49:00,
2013-03-17 22:54:00,48.5,46.8,30.17,North,5,25.8,26.4,94,0.00, ,,-99.99,VWS V12.07,2013-03-18 02:54:00,
2013-03-17 22:59:00,48.4,46.4,30.16,NE,46,14.6,19.7,93,0.00, ,,-99.99,VWS V12.07,2013-03-18 02:59:00,
2013-03-17 23:04:00,48.4,46.4,30.17,NNE,31,16.3,30.0,93,0.00, ,,-99.99,VWS V12.07,2013-03-18 03:04:00,
2013-03-17 23:09:00,48.5,46.5,30.16,NE,39,13.4,30.0,93,0.00, ,,-99.99,VWS V12.07,2013-03-18 03:09:00,
2013-03-17 23:14:00,48.1,46.2,30.16,NNE,33,11.7,30.0,93,0.00, ,,-99.99,VWS V12.07,2013-03-18 03:14:00,
2013-03-17 23:19:00,48.9,47.1,30.16,East,98,10.4,16.7,94,0.00, ,,-99.99,VWS V12.07,2013-03-18 03:19:00,
2013-03-17 23:24:00,48.5,46.7,30.17,NNE,24,20.8,22.1,93,0.00, ,,-99.99,VWS V12.07,2013-03-18 03:24:00,
2013-03-17 23:29:00,48.7,46.9,30.17,NNE,29,14.4,22.1,94,0.00, ,,-99.99,VWS V12.07,2013-03-18 03:29:00,
2013-03-17 23:34:00,48.9,47.1,30.17,NE,56,13.9,22.1,94,0.00, ,,-99.99,VWS V12.07,2013-03-18 03:34:00,
2013-03-17 23:39:00,48.8,47.1,30.17,NNE,24,9.3,19.0,94,0.00, ,,-99.99,VWS V12.07,2013-03-18 03:39:00,
2013-03-17 23:44:00,48.7,46.9,30.16,NE,50,13.1,19.9,94,0.00, ,,-99.99,VWS V12.07,2013-03-18 03:44:00,
2013-03-17 23:49:00,48.6,46.7,30.16,NE,39,11.1,23.1,93,0.00, ,,-99.99,VWS V12.07,2013-03-18 03:49:00,
2013-03-17 23:54:00,48.5,46.7,30.16,NE,38,14.9,23.1,93,0.00, ,,-99.99,VWS V12.07,2013-03-18 03:54:00,
2013-03-17 23:59:00,48.3,46.5,30.16,NNE,29,12.9,19.6,94,0.00, ,,-99.99,VWS V12.07,2013-03-18 03:59:00,